createdAt,value
2023-03-29T00:00:24.000Z,82.06
2023-03-29T00:01:24.000Z,82.06
2023-03-29T00:02:24.000Z,82.58
2023-03-29T00:03:24.000Z,82.48
2023-03-29T00:04:24.000Z,82.58
2023-03-29T00:05:24.000Z,82.17
2023-03-29T00:06:24.000Z,81.96
2023-03-29T00:07:24.000Z,82.17
2023-03-29T00:08:24.000Z,82.37
2023-03-29T00:09:24.000Z,82.37
2023-03-29T00:10:24.000Z,82.48
2023-03-29T00:11:24.000Z,82.27
2023-03-29T00:12:24.000Z,82.17
2023-03-29T00:13:25.000Z,82.37
2023-03-29T00:14:25.000Z,82.58
2023-03-29T00:15:25.000Z,82.89
2023-03-29T00:16:25.000Z,83.52
2023-03-29T00:17:25.000Z,82.89
2023-03-29T00:18:25.000Z,82.58
2023-03-29T00:19:25.000Z,82.37
2023-03-29T00:20:25.000Z,82.58
2023-03-29T00:21:25.000Z,82.48
2023-03-29T00:22:25.000Z,82.58
2023-03-29T00:23:25.000Z,82.34
2023-03-29T00:24:25.000Z,82.48
2023-03-29T00:25:25.000Z,82.37
2023-03-29T00:26:25.000Z,82.06
2023-03-29T00:27:26.000Z,82.27
2023-03-29T00:28:26.000Z,81.96
2023-03-29T00:29:26.000Z,82.13
2023-03-29T00:30:26.000Z,82.44
2023-03-29T00:31:26.000Z,82.34
2023-03-29T00:32:26.000Z,82.34
2023-03-29T00:33:26.000Z,82.34
2023-03-29T00:34:26.000Z,82.34
2023-03-29T00:35:26.000Z,82.23
2023-03-29T00:36:26.000Z,82.13
2023-03-29T00:37:26.000Z,82.13
2023-03-29T00:38:26.000Z,82.34
2023-03-29T00:39:26.000Z,82.34
2023-03-29T00:40:26.000Z,82.44
2023-03-29T00:41:26.000Z,82.44
2023-03-29T00:42:26.000Z,82.37
2023-03-29T00:43:27.000Z,82.34
2023-03-29T00:44:27.000Z,83.10
2023-03-29T00:45:27.000Z,82.79
2023-03-29T00:46:27.000Z,82.68
2023-03-29T00:47:27.000Z,82.65
2023-03-29T00:48:27.000Z,83.00
2023-03-29T00:49:27.000Z,82.75
2023-03-29T00:50:27.000Z,83.10
2023-03-29T00:51:27.000Z,82.89
2023-03-29T00:52:27.000Z,82.65
2023-03-29T00:53:27.000Z,82.79
2023-03-29T00:54:27.000Z,82.54
2023-03-29T00:55:27.000Z,82.13
2023-03-29T00:56:27.000Z,82.37
2023-03-29T00:57:27.000Z,82.34
2023-03-29T00:58:27.000Z,82.03
2023-03-29T00:59:28.000Z,82.13
2023-03-29T01:00:28.000Z,82.65
2023-03-29T01:01:28.000Z,82.75
2023-03-29T01:02:28.000Z,82.65
2023-03-29T01:03:28.000Z,82.44
2023-03-29T01:04:28.000Z,82.54
2023-03-29T01:05:28.000Z,81.92
2023-03-29T01:06:28.000Z,82.03
2023-03-29T01:07:28.000Z,81.92
2023-03-29T01:08:28.000Z,81.81
2023-03-29T01:09:28.000Z,81.71
2023-03-29T01:10:28.000Z,82.13
2023-03-29T01:11:28.000Z,81.81
2023-03-29T01:12:28.000Z,81.40
2023-03-29T01:13:28.000Z,81.81
2023-03-29T01:14:28.000Z,82.23
2023-03-29T01:15:28.000Z,82.13
2023-03-29T01:16:29.000Z,82.44
2023-03-29T01:17:29.000Z,82.44
2023-03-29T01:18:29.000Z,82.54
2023-03-29T01:19:29.000Z,82.03
2023-03-29T01:20:29.000Z,81.29
2023-03-29T01:21:29.000Z,81.29
2023-03-29T01:22:29.000Z,80.98
2023-03-29T01:23:29.000Z,81.29
2023-03-29T01:24:29.000Z,81.81
2023-03-29T01:25:29.000Z,81.19
2023-03-29T01:26:29.000Z,80.46
2023-03-29T01:27:29.000Z,80.57
2023-03-29T01:28:29.000Z,80.53
2023-03-29T01:29:29.000Z,80.46
2023-03-29T01:30:29.000Z,80.63
2023-03-29T01:31:29.000Z,80.77
2023-03-29T01:32:30.000Z,80.36
2023-03-29T01:33:30.000Z,80.26
2023-03-29T01:34:30.000Z,80.15
2023-03-29T01:35:30.000Z,80.57
2023-03-29T01:36:30.000Z,81.29
2023-03-29T01:37:30.000Z,81.19
2023-03-29T01:38:30.000Z,80.88
2023-03-29T01:39:30.000Z,80.98
2023-03-29T01:40:30.000Z,80.77
2023-03-29T01:41:30.000Z,80.36
2023-03-29T01:42:30.000Z,80.26
2023-03-29T01:43:30.000Z,80.26
2023-03-29T01:44:30.000Z,80.26
2023-03-29T01:45:30.000Z,80.36
2023-03-29T01:46:30.000Z,79.63
2023-03-29T01:47:30.000Z,80.36
2023-03-29T01:48:30.000Z,79.80
2023-03-29T01:49:30.000Z,79.59
2023-03-29T01:50:31.000Z,78.97
2023-03-29T01:51:31.000Z,79.07
2023-03-29T01:52:31.000Z,79.49
2023-03-29T01:53:31.000Z,78.97
2023-03-29T01:54:31.000Z,79.28
2023-03-29T01:55:31.000Z,79.49
2023-03-29T01:56:31.000Z,78.55
2023-03-29T01:57:31.000Z,79.17
2023-03-29T01:58:31.000Z,79.59
2023-03-29T01:59:31.000Z,79.49
2023-03-29T02:00:31.000Z,78.97
2023-03-29T02:01:31.000Z,79.07
2023-03-29T02:02:31.000Z,79.28
2023-03-29T02:03:31.000Z,79.17
2023-03-29T02:04:31.000Z,78.86
2023-03-29T02:05:31.000Z,78.45
2023-03-29T02:06:32.000Z,77.30
2023-03-29T02:07:32.000Z,77.61
2023-03-29T02:08:32.000Z,77.61
2023-03-29T02:09:32.000Z,78.00
2023-03-29T02:10:32.000Z,77.58
2023-03-29T02:11:32.000Z,78.20
2023-03-29T02:12:32.000Z,77.37
2023-03-29T02:13:32.000Z,77.06
2023-03-29T02:14:32.000Z,77.89
2023-03-29T02:15:32.000Z,77.69
2023-03-29T02:16:32.000Z,77.37
2023-03-29T02:17:32.000Z,77.06
2023-03-29T02:18:32.000Z,77.37
2023-03-29T02:19:32.000Z,77.27
2023-03-29T02:20:32.000Z,76.33
2023-03-29T02:21:32.000Z,76.12
2023-03-29T02:22:32.000Z,77.16
2023-03-29T02:23:33.000Z,77.06
2023-03-29T02:24:33.000Z,76.54
2023-03-29T02:25:33.000Z,77.58
2023-03-29T02:26:33.000Z,77.48
2023-03-29T02:27:33.000Z,77.37
2023-03-29T02:28:33.000Z,77.27
2023-03-29T02:29:33.000Z,77.48
2023-03-29T02:30:33.000Z,78.10
2023-03-29T02:31:33.000Z,77.69
2023-03-29T02:32:33.000Z,77.58
2023-03-29T02:33:33.000Z,77.37
2023-03-29T02:34:33.000Z,77.27
2023-03-29T02:35:33.000Z,78.10
2023-03-29T02:36:33.000Z,77.69
2023-03-29T02:37:33.000Z,77.16
2023-03-29T02:38:33.000Z,78.31
2023-03-29T02:39:33.000Z,78.20
2023-03-29T02:40:34.000Z,77.69
2023-03-29T02:41:34.000Z,77.79
2023-03-29T02:42:34.000Z,77.79
2023-03-29T02:43:34.000Z,78.00
2023-03-29T02:44:34.000Z,78.10
2023-03-29T02:45:34.000Z,77.89
2023-03-29T02:46:34.000Z,79.03
2023-03-29T02:47:34.000Z,78.10
2023-03-29T02:48:34.000Z,77.27
2023-03-29T02:49:34.000Z,78.00
2023-03-29T02:50:34.000Z,78.10
2023-03-29T02:51:34.000Z,77.79
2023-03-29T02:52:34.000Z,78.20
2023-03-29T02:53:34.000Z,77.89
2023-03-29T02:54:34.000Z,78.52
2023-03-29T02:55:34.000Z,78.31
2023-03-29T02:56:34.000Z,78.10
2023-03-29T02:57:35.000Z,78.10
2023-03-29T02:58:35.000Z,78.00
2023-03-29T02:59:35.000Z,77.58
2023-03-29T03:00:35.000Z,77.69
2023-03-29T03:01:35.000Z,78.00
2023-03-29T03:02:35.000Z,77.89
2023-03-29T03:03:35.000Z,78.20
2023-03-29T03:04:35.000Z,78.10
2023-03-29T03:05:35.000Z,78.41
2023-03-29T03:06:35.000Z,78.52
2023-03-29T03:07:35.000Z,78.10
2023-03-29T03:08:35.000Z,78.00
2023-03-29T03:09:35.000Z,78.24
2023-03-29T03:10:35.000Z,78.52
2023-03-29T03:11:35.000Z,78.66
2023-03-29T03:12:35.000Z,78.72
2023-03-29T03:13:35.000Z,78.10
2023-03-29T03:14:35.000Z,78.34
2023-03-29T03:15:36.000Z,78.31
2023-03-29T03:16:36.000Z,78.55
2023-03-29T03:17:36.000Z,78.66
2023-03-29T03:18:36.000Z,77.79
2023-03-29T03:19:36.000Z,78.55
2023-03-29T03:20:36.000Z,78.72
2023-03-29T03:21:36.000Z,79.35
2023-03-29T03:22:36.000Z,79.14
2023-03-29T03:23:36.000Z,79.45
2023-03-29T03:24:36.000Z,79.24
2023-03-29T03:25:36.000Z,78.86
2023-03-29T03:26:36.000Z,79.35
2023-03-29T03:27:36.000Z,79.35
2023-03-29T03:28:36.000Z,79.66
2023-03-29T03:29:36.000Z,79.55
2023-03-29T03:30:36.000Z,79.14
2023-03-29T03:31:36.000Z,78.62
2023-03-29T03:32:36.000Z,77.27
2023-03-29T03:33:36.000Z,77.37
2023-03-29T03:34:36.000Z,79.03
2023-03-29T03:35:37.000Z,78.00
2023-03-29T03:36:37.000Z,77.06
2023-03-29T03:37:37.000Z,76.64
2023-03-29T03:38:37.000Z,76.82
2023-03-29T03:39:37.000Z,76.72
2023-03-29T03:40:37.000Z,76.61
2023-03-29T03:41:37.000Z,76.51
2023-03-29T03:42:37.000Z,77.44
2023-03-29T03:43:37.000Z,77.23
2023-03-29T03:44:37.000Z,76.72
2023-03-29T03:45:37.000Z,75.88
2023-03-29T03:46:37.000Z,76.19
2023-03-29T03:47:37.000Z,76.72
2023-03-29T03:48:37.000Z,77.61
2023-03-29T03:49:37.000Z,76.68
2023-03-29T03:50:37.000Z,75.64
2023-03-29T03:51:37.000Z,77.09
2023-03-29T03:52:37.000Z,77.51
2023-03-29T03:53:37.000Z,76.57
2023-03-29T03:54:37.000Z,75.43
2023-03-29T03:55:37.000Z,76.06
2023-03-29T03:56:38.000Z,74.80
2023-03-29T03:57:38.000Z,74.98
2023-03-29T03:58:38.000Z,74.77
2023-03-29T03:59:38.000Z,74.46
2023-03-29T04:00:38.000Z,74.36
2023-03-29T04:01:38.000Z,75.40
2023-03-29T04:02:38.000Z,75.09
2023-03-29T04:03:38.000Z,74.15
2023-03-29T04:04:38.000Z,73.94
2023-03-29T04:05:38.000Z,74.05
2023-03-29T04:06:38.000Z,74.15
2023-03-29T04:07:38.000Z,74.77
2023-03-29T04:08:38.000Z,74.57
2023-03-29T04:09:38.000Z,74.01
2023-03-29T04:10:38.000Z,73.49
2023-03-29T04:11:38.000Z,73.70
2023-03-29T04:12:38.000Z,74.74
2023-03-29T04:13:38.000Z,74.11
2023-03-29T04:14:38.000Z,75.05
2023-03-29T04:15:39.000Z,75.15
2023-03-29T04:16:39.000Z,75.46
2023-03-29T04:17:39.000Z,74.74
2023-03-29T04:18:39.000Z,74.43
2023-03-29T04:19:39.000Z,73.60
2023-03-29T04:20:39.000Z,73.70
2023-03-29T04:21:39.000Z,74.43
2023-03-29T04:22:39.000Z,75.78
2023-03-29T04:23:39.000Z,74.01
2023-03-29T04:24:39.000Z,75.05
2023-03-29T04:25:39.000Z,74.01
2023-03-29T04:26:39.000Z,74.95
2023-03-29T04:27:39.000Z,75.46
2023-03-29T04:28:39.000Z,74.95
2023-03-29T04:29:39.000Z,74.84
2023-03-29T04:30:39.000Z,74.74
2023-03-29T04:31:39.000Z,74.43
2023-03-29T04:32:39.000Z,74.74
2023-03-29T04:33:39.000Z,74.32
2023-03-29T04:34:39.000Z,74.43
2023-03-29T04:35:39.000Z,74.43
2023-03-29T04:36:40.000Z,74.22
2023-03-29T04:37:40.000Z,74.29
2023-03-29T04:38:40.000Z,73.88
2023-03-29T04:39:40.000Z,74.60
2023-03-29T04:40:40.000Z,74.81
2023-03-29T04:41:40.000Z,74.29
2023-03-29T04:42:40.000Z,74.29
2023-03-29T04:43:40.000Z,75.12
2023-03-29T04:44:40.000Z,74.81
2023-03-29T04:45:40.000Z,74.91
2023-03-29T04:46:40.000Z,74.91
2023-03-29T04:47:40.000Z,75.33
2023-03-29T04:48:40.000Z,75.85
2023-03-29T04:49:40.000Z,76.37
2023-03-29T04:50:40.000Z,76.37
2023-03-29T04:51:40.000Z,77.09
2023-03-29T04:52:40.000Z,76.89
2023-03-29T04:53:40.000Z,75.95
2023-03-29T04:54:40.000Z,77.09
2023-03-29T04:55:41.000Z,76.99
2023-03-29T04:56:41.000Z,77.92
2023-03-29T04:57:41.000Z,77.40
2023-03-29T04:58:41.000Z,77.20
2023-03-29T04:59:41.000Z,77.30
2023-03-29T05:00:41.000Z,77.09
2023-03-29T05:01:41.000Z,77.72
2023-03-29T05:02:41.000Z,76.99
2023-03-29T05:03:41.000Z,76.78
2023-03-29T05:04:41.000Z,76.57
2023-03-29T05:05:41.000Z,77.61
2023-03-29T05:06:41.000Z,76.78
2023-03-29T05:07:41.000Z,77.40
2023-03-29T05:08:41.000Z,77.09
2023-03-29T05:09:41.000Z,77.61
2023-03-29T05:10:41.000Z,78.03
2023-03-29T05:11:41.000Z,77.92
2023-03-29T05:12:41.000Z,78.03
2023-03-29T05:13:41.000Z,77.51
2023-03-29T05:14:41.000Z,78.65
2023-03-29T05:15:41.000Z,78.23
2023-03-29T05:16:42.000Z,77.09
2023-03-29T05:17:42.000Z,76.89
2023-03-29T05:18:42.000Z,77.61
2023-03-29T05:19:42.000Z,76.95
2023-03-29T05:20:42.000Z,76.85
2023-03-29T05:21:42.000Z,76.64
2023-03-29T05:22:42.000Z,76.64
2023-03-29T05:23:42.000Z,77.58
2023-03-29T05:24:42.000Z,78.09
2023-03-29T05:25:42.000Z,77.68
2023-03-29T05:26:42.000Z,77.26
2023-03-29T05:27:42.000Z,77.37
2023-03-29T05:28:42.000Z,77.47
2023-03-29T05:29:42.000Z,77.37
2023-03-29T05:30:42.000Z,77.58
2023-03-29T05:31:42.000Z,77.99
2023-03-29T05:32:42.000Z,77.78
2023-03-29T05:33:42.000Z,77.16
2023-03-29T05:34:42.000Z,77.78
2023-03-29T05:35:42.000Z,78.09
2023-03-29T05:36:42.000Z,78.72
2023-03-29T05:37:42.000Z,79.03
2023-03-29T05:38:43.000Z,79.44
2023-03-29T05:39:43.000Z,78.20
2023-03-29T05:40:43.000Z,77.89
2023-03-29T05:41:43.000Z,78.82
2023-03-29T05:42:43.000Z,77.89
2023-03-29T05:43:43.000Z,78.20
2023-03-29T05:44:43.000Z,77.26
2023-03-29T05:45:43.000Z,77.47
2023-03-29T05:46:43.000Z,78.72
2023-03-29T05:47:43.000Z,78.58
2023-03-29T05:48:43.000Z,77.85
2023-03-29T05:49:43.000Z,77.68
2023-03-29T05:50:43.000Z,78.06
2023-03-29T05:51:43.000Z,78.16
2023-03-29T05:52:43.000Z,78.06
2023-03-29T05:53:43.000Z,78.27
2023-03-29T05:54:43.000Z,78.47
2023-03-29T05:55:43.000Z,78.06
2023-03-29T05:56:43.000Z,77.95
2023-03-29T05:57:43.000Z,78.06
2023-03-29T05:58:43.000Z,77.64
2023-03-29T05:59:43.000Z,77.85
2023-03-29T06:00:43.000Z,78.16
2023-03-29T06:01:43.000Z,78.16
2023-03-29T06:02:44.000Z,78.47
2023-03-29T06:03:44.000Z,78.16
2023-03-29T06:04:44.000Z,78.27
2023-03-29T06:05:44.000Z,78.47
2023-03-29T06:06:44.000Z,77.95
2023-03-29T06:07:44.000Z,78.16
2023-03-29T06:08:44.000Z,78.68
2023-03-29T06:09:44.000Z,78.96
2023-03-29T06:10:44.000Z,78.33
2023-03-29T06:11:44.000Z,78.33
2023-03-29T06:12:44.000Z,78.33
2023-03-29T06:13:44.000Z,78.75
2023-03-29T06:14:44.000Z,78.85
2023-03-29T06:15:44.000Z,78.96
2023-03-29T06:16:44.000Z,78.75
2023-03-29T06:17:44.000Z,78.54
2023-03-29T06:18:44.000Z,79.47
2023-03-29T06:19:44.000Z,79.47
2023-03-29T06:20:44.000Z,78.64
2023-03-29T06:21:44.000Z,78.85
2023-03-29T06:22:44.000Z,79.37
2023-03-29T06:23:44.000Z,79.99
2023-03-29T06:24:44.000Z,79.58
2023-03-29T06:25:44.000Z,79.68
2023-03-29T06:26:44.000Z,79.37
2023-03-29T06:27:44.000Z,79.68
2023-03-29T06:28:45.000Z,79.99
2023-03-29T06:29:45.000Z,80.30
2023-03-29T06:30:45.000Z,79.88
2023-03-29T06:31:45.000Z,79.88
2023-03-29T06:32:45.000Z,79.99
2023-03-29T06:33:45.000Z,80.61
2023-03-29T06:34:45.000Z,80.51
2023-03-29T06:35:45.000Z,79.99
2023-03-29T06:36:45.000Z,80.09
2023-03-29T06:37:45.000Z,80.16
2023-03-29T06:38:45.000Z,80.68
2023-03-29T06:39:45.000Z,80.47
2023-03-29T06:40:45.000Z,81.09
2023-03-29T06:41:45.000Z,81.61
2023-03-29T06:42:45.000Z,80.99
2023-03-29T06:43:45.000Z,81.09
2023-03-29T06:44:45.000Z,81.20
2023-03-29T06:45:45.000Z,81.20
2023-03-29T06:46:45.000Z,80.68
2023-03-29T06:47:45.000Z,81.20
2023-03-29T06:48:45.000Z,81.09
2023-03-29T06:49:45.000Z,80.99
2023-03-29T06:50:45.000Z,81.30
2023-03-29T06:51:45.000Z,80.78
2023-03-29T06:52:45.000Z,80.78
2023-03-29T06:53:45.000Z,80.88
2023-03-29T06:54:45.000Z,80.74
2023-03-29T06:55:46.000Z,81.05
2023-03-29T06:56:46.000Z,81.05
2023-03-29T06:57:46.000Z,80.74
2023-03-29T06:58:46.000Z,81.68
2023-03-29T06:59:46.000Z,80.64
2023-03-29T07:00:46.000Z,81.26
2023-03-29T07:01:46.000Z,81.26
2023-03-29T07:02:46.000Z,81.57
2023-03-29T07:03:46.000Z,81.47
2023-03-29T07:04:46.000Z,81.02
2023-03-29T07:05:46.000Z,80.43
2023-03-29T07:06:46.000Z,81.64
2023-03-29T07:07:46.000Z,81.05
2023-03-29T07:08:46.000Z,80.50
2023-03-29T07:09:46.000Z,80.60
2023-03-29T07:10:46.000Z,80.95
2023-03-29T07:11:46.000Z,81.02
2023-03-29T07:12:46.000Z,81.43
2023-03-29T07:13:46.000Z,81.12
2023-03-29T07:14:46.000Z,81.84
2023-03-29T07:15:46.000Z,81.64
2023-03-29T07:16:46.000Z,81.84
2023-03-29T07:17:46.000Z,80.81
2023-03-29T07:18:46.000Z,81.43
2023-03-29T07:19:46.000Z,81.54
2023-03-29T07:20:46.000Z,81.84
2023-03-29T07:21:46.000Z,81.12
2023-03-29T07:22:46.000Z,80.71
2023-03-29T07:23:46.000Z,80.91
2023-03-29T07:24:46.000Z,81.64
2023-03-29T07:25:47.000Z,82.05
2023-03-29T07:26:47.000Z,81.23
2023-03-29T07:27:47.000Z,81.12
2023-03-29T07:28:47.000Z,80.98
2023-03-29T07:29:47.000Z,82.12
2023-03-29T07:30:47.000Z,81.91
2023-03-29T07:31:47.000Z,81.81
2023-03-29T07:32:47.000Z,82.22
2023-03-29T07:33:47.000Z,82.95
2023-03-29T07:34:47.000Z,80.98
2023-03-29T07:35:47.000Z,80.67
2023-03-29T07:36:47.000Z,80.77
2023-03-29T07:37:47.000Z,80.98
2023-03-29T07:38:47.000Z,81.91
2023-03-29T07:39:47.000Z,81.39
2023-03-29T07:40:47.000Z,81.29
2023-03-29T07:41:47.000Z,81.39
2023-03-29T07:42:47.000Z,81.15
2023-03-29T07:43:47.000Z,80.67
2023-03-29T07:44:47.000Z,80.94
2023-03-29T07:45:47.000Z,80.84
2023-03-29T07:46:47.000Z,80.84
2023-03-29T07:47:47.000Z,81.35
2023-03-29T07:48:47.000Z,82.08
2023-03-29T07:49:47.000Z,81.05
2023-03-29T07:50:47.000Z,80.74
2023-03-29T07:51:47.000Z,80.94
2023-03-29T07:52:47.000Z,81.46
2023-03-29T07:53:47.000Z,80.84
2023-03-29T07:54:47.000Z,81.46
2023-03-29T07:55:47.000Z,81.15
2023-03-29T07:56:47.000Z,80.18
2023-03-29T07:57:47.000Z,80.18
2023-03-29T07:58:47.000Z,81.11
2023-03-29T07:59:47.000Z,81.73
2023-03-29T08:00:48.000Z,80.90
2023-03-29T08:01:48.000Z,80.18
2023-03-29T08:02:48.000Z,79.97
2023-03-29T08:03:48.000Z,80.08
2023-03-29T08:04:48.000Z,80.18
2023-03-29T08:05:48.000Z,80.49
2023-03-29T08:06:48.000Z,79.66
2023-03-29T08:07:48.000Z,81.11
2023-03-29T08:08:48.000Z,79.77
2023-03-29T08:09:48.000Z,79.94
2023-03-29T08:10:48.000Z,81.28
2023-03-29T08:11:48.000Z,81.07
2023-03-29T08:12:48.000Z,79.63
2023-03-29T08:13:48.000Z,79.52
2023-03-29T08:14:48.000Z,79.52
2023-03-29T08:15:48.000Z,79.22
2023-03-29T08:16:48.000Z,79.42
2023-03-29T08:17:48.000Z,79.52
2023-03-29T08:18:48.000Z,79.32
2023-03-29T08:19:48.000Z,79.01
2023-03-29T08:20:48.000Z,79.11
2023-03-29T08:21:48.000Z,79.42
2023-03-29T08:22:48.000Z,78.97
2023-03-29T08:23:48.000Z,79.18
2023-03-29T08:24:48.000Z,79.28
2023-03-29T08:25:48.000Z,79.28
2023-03-29T08:26:48.000Z,79.08
2023-03-29T08:27:48.000Z,79.49
2023-03-29T08:28:48.000Z,78.25
2023-03-29T08:29:48.000Z,78.35
2023-03-29T08:30:48.000Z,78.35
2023-03-29T08:31:48.000Z,79.14
2023-03-29T08:32:48.000Z,78.14
2023-03-29T08:33:48.000Z,78.01
2023-03-29T08:34:48.000Z,77.80
2023-03-29T08:35:48.000Z,77.70
2023-03-29T08:36:48.000Z,78.11
2023-03-29T08:37:48.000Z,77.59
2023-03-29T08:38:48.000Z,78.01
2023-03-29T08:39:48.000Z,79.04
2023-03-29T08:40:48.000Z,78.28
2023-03-29T08:41:48.000Z,80.04
2023-03-29T08:42:48.000Z,78.49
2023-03-29T08:43:48.000Z,77.52
2023-03-29T08:44:48.000Z,77.15
2023-03-29T08:45:48.000Z,76.84
2023-03-29T08:46:48.000Z,77.01
2023-03-29T08:47:49.000Z,77.83
2023-03-29T08:48:49.000Z,77.83
2023-03-29T08:49:49.000Z,77.22
2023-03-29T08:50:49.000Z,76.90
2023-03-29T08:51:49.000Z,77.01
2023-03-29T08:52:49.000Z,77.01
2023-03-29T08:53:49.000Z,76.59
2023-03-29T08:54:49.000Z,76.90
2023-03-29T08:55:49.000Z,77.11
2023-03-29T08:56:49.000Z,76.39
2023-03-29T08:57:49.000Z,76.08
2023-03-29T08:58:49.000Z,75.87
2023-03-29T08:59:49.000Z,75.87
2023-03-29T09:00:49.000Z,76.90
2023-03-29T09:01:49.000Z,77.01
2023-03-29T09:02:49.000Z,77.42
2023-03-29T09:03:49.000Z,76.76
2023-03-29T09:04:49.000Z,76.25
2023-03-29T09:05:49.000Z,76.46
2023-03-29T09:06:49.000Z,75.32
2023-03-29T09:07:49.000Z,76.66
2023-03-29T09:08:49.000Z,75.84
2023-03-29T09:09:49.000Z,75.22
2023-03-29T09:10:49.000Z,75.12
2023-03-29T09:11:49.000Z,75.43
2023-03-29T09:12:49.000Z,75.32
2023-03-29T09:13:49.000Z,75.53
2023-03-29T09:14:49.000Z,75.90
2023-03-29T09:15:49.000Z,75.60
2023-03-29T09:16:49.000Z,75.29
2023-03-29T09:17:49.000Z,74.98
2023-03-29T09:18:49.000Z,74.98
2023-03-29T09:19:49.000Z,74.88
2023-03-29T09:20:49.000Z,74.57
2023-03-29T09:21:49.000Z,74.57
2023-03-29T09:22:49.000Z,74.67
2023-03-29T09:23:49.000Z,75.90
2023-03-29T09:24:49.000Z,75.39
2023-03-29T09:25:49.000Z,75.29
2023-03-29T09:26:49.000Z,74.46
2023-03-29T09:27:49.000Z,74.77
2023-03-29T09:28:49.000Z,74.36
2023-03-29T09:29:49.000Z,74.88
2023-03-29T09:30:49.000Z,74.98
2023-03-29T09:31:49.000Z,74.88
2023-03-29T09:32:49.000Z,74.98
2023-03-29T09:33:49.000Z,74.57
2023-03-29T09:34:49.000Z,75.39
2023-03-29T09:35:49.000Z,74.95
2023-03-29T09:36:49.000Z,75.25
2023-03-29T09:37:49.000Z,74.84
2023-03-29T09:38:49.000Z,74.02
2023-03-29T09:39:49.000Z,74.84
2023-03-29T09:40:49.000Z,74.12
2023-03-29T09:41:49.000Z,73.91
2023-03-29T09:42:49.000Z,73.71
2023-03-29T09:43:49.000Z,73.91
2023-03-29T09:44:49.000Z,74.12
2023-03-29T09:45:49.000Z,74.29
2023-03-29T09:46:49.000Z,74.50
2023-03-29T09:47:49.000Z,73.78
2023-03-29T09:48:49.000Z,73.74
2023-03-29T09:49:49.000Z,73.54
2023-03-29T09:50:49.000Z,74.26
2023-03-29T09:51:49.000Z,73.13
2023-03-29T09:52:49.000Z,72.68
2023-03-29T09:53:49.000Z,72.89
2023-03-29T09:54:49.000Z,72.17
2023-03-29T09:55:49.000Z,71.86
2023-03-29T09:56:49.000Z,72.58
2023-03-29T09:57:49.000Z,73.81
2023-03-29T09:58:49.000Z,72.34
2023-03-29T09:59:49.000Z,73.06
2023-03-29T10:00:49.000Z,71.41
2023-03-29T10:01:49.000Z,71.93
2023-03-29T10:02:49.000Z,72.65
2023-03-29T10:03:49.000Z,72.03
2023-03-29T10:04:49.000Z,71.28
2023-03-29T10:05:49.000Z,71.69
2023-03-29T10:06:49.000Z,73.13
2023-03-29T10:07:49.000Z,72.78
2023-03-29T10:08:49.000Z,70.01
2023-03-29T10:09:49.000Z,70.42
2023-03-29T10:10:49.000Z,70.42
2023-03-29T10:11:49.000Z,71.14
2023-03-29T10:12:49.000Z,70.60
2023-03-29T10:13:49.000Z,70.90
2023-03-29T10:14:49.000Z,72.03
2023-03-29T10:15:49.000Z,71.39
2023-03-29T10:16:49.000Z,69.54
2023-03-29T10:17:49.000Z,69.74
2023-03-29T10:18:49.000Z,69.54
2023-03-29T10:19:49.000Z,68.27
2023-03-29T10:20:49.000Z,70.02
2023-03-29T10:21:49.000Z,68.99
2023-03-29T10:22:49.000Z,68.79
2023-03-29T10:23:49.000Z,67.86
2023-03-29T10:24:49.000Z,69.30
2023-03-29T10:25:49.000Z,68.35
2023-03-29T10:26:49.000Z,68.86
2023-03-29T10:27:49.000Z,67.22
2023-03-29T10:28:49.000Z,67.73
2023-03-29T10:29:49.000Z,68.55
2023-03-29T10:30:49.000Z,68.55
2023-03-29T10:31:49.000Z,67.52
2023-03-29T10:32:49.000Z,68.04
2023-03-29T10:33:49.000Z,68.96
2023-03-29T10:34:49.000Z,68.24
2023-03-29T10:35:49.000Z,68.04
2023-03-29T10:36:49.000Z,67.73
2023-03-29T10:37:49.000Z,66.60
2023-03-29T10:38:49.000Z,67.02
2023-03-29T10:39:49.000Z,67.32
2023-03-29T10:40:49.000Z,66.91
2023-03-29T10:41:49.000Z,66.30
2023-03-29T10:42:49.000Z,66.81
2023-03-29T10:43:49.000Z,68.41
2023-03-29T10:44:49.000Z,66.78
2023-03-29T10:45:49.000Z,67.08
2023-03-29T10:46:49.000Z,66.06
2023-03-29T10:47:49.000Z,65.75
2023-03-29T10:48:49.000Z,65.75
2023-03-29T10:49:49.000Z,65.55
2023-03-29T10:50:49.000Z,65.86
2023-03-29T10:51:49.000Z,66.88
2023-03-29T10:52:49.000Z,65.96
2023-03-29T10:53:49.000Z,66.78
2023-03-29T10:54:49.000Z,69.03
2023-03-29T10:55:49.000Z,66.37
2023-03-29T10:56:49.000Z,67.19
2023-03-29T10:57:49.000Z,68.11
2023-03-29T10:58:49.000Z,66.06
2023-03-29T10:59:49.000Z,66.47
2023-03-29T11:00:49.000Z,66.98
2023-03-29T11:01:49.000Z,67.40
2023-03-29T11:02:49.000Z,66.67
2023-03-29T11:03:49.000Z,66.06
2023-03-29T11:04:49.000Z,66.47
2023-03-29T11:05:49.000Z,67.46
2023-03-29T11:06:49.000Z,65.65
2023-03-29T11:07:49.000Z,67.05
2023-03-29T11:08:49.000Z,66.03
2023-03-29T11:09:49.000Z,65.42
2023-03-29T11:10:49.000Z,65.83
2023-03-29T11:11:49.000Z,65.96
2023-03-29T11:12:49.000Z,66.57
2023-03-29T11:13:49.000Z,66.88
2023-03-29T11:14:49.000Z,66.95
2023-03-29T11:15:49.000Z,67.46
2023-03-29T11:16:49.000Z,67.64
2023-03-29T11:17:49.000Z,68.87
2023-03-29T11:18:49.000Z,66.99
2023-03-29T11:19:49.000Z,65.49
2023-03-29T11:20:49.000Z,66.00
2023-03-29T11:21:49.000Z,66.82
2023-03-29T11:22:49.000Z,66.92
2023-03-29T11:23:49.000Z,66.61
2023-03-29T11:24:49.000Z,66.31
2023-03-29T11:25:49.000Z,65.69
2023-03-29T11:26:49.000Z,66.61
2023-03-29T11:27:49.000Z,65.28
2023-03-29T11:28:49.000Z,65.28
2023-03-29T11:29:49.000Z,65.77
2023-03-29T11:30:49.000Z,66.17
2023-03-29T11:31:49.000Z,65.25
2023-03-29T11:32:49.000Z,64.81
2023-03-29T11:33:49.000Z,65.02
2023-03-29T11:34:49.000Z,62.87
2023-03-29T11:35:49.000Z,64.07
2023-03-29T11:36:49.000Z,63.04
2023-03-29T11:37:49.000Z,62.74
2023-03-29T11:38:49.000Z,63.35
2023-03-29T11:39:49.000Z,63.35
2023-03-29T11:40:49.000Z,62.63
2023-03-29T11:41:49.000Z,62.66
2023-03-29T11:42:49.000Z,63.18
2023-03-29T11:43:49.000Z,63.25
2023-03-29T11:44:49.000Z,63.04
2023-03-29T11:45:49.000Z,62.74
2023-03-29T11:46:49.000Z,62.46
2023-03-29T11:47:49.000Z,62.98
2023-03-29T11:48:49.000Z,64.92
2023-03-29T11:49:49.000Z,64.99
2023-03-29T11:50:49.000Z,63.04
2023-03-29T11:51:49.000Z,62.66
2023-03-29T11:52:49.000Z,63.79
2023-03-29T11:53:49.000Z,63.79
2023-03-29T11:54:49.000Z,64.30
2023-03-29T11:55:49.000Z,64.89
2023-03-29T11:56:49.000Z,65.09
2023-03-29T11:57:49.000Z,63.93
2023-03-29T11:58:49.000Z,62.84
2023-03-29T11:59:49.000Z,62.54
2023-03-29T12:00:49.000Z,63.35
2023-03-29T12:01:49.000Z,64.48
2023-03-29T12:02:49.000Z,64.58
2023-03-29T12:03:49.000Z,63.93
2023-03-29T12:04:49.000Z,63.22
2023-03-29T12:05:49.000Z,63.76
2023-03-29T12:06:49.000Z,62.84
2023-03-29T12:07:49.000Z,64.37
2023-03-29T12:08:49.000Z,65.19
2023-03-29T12:09:49.000Z,64.65
2023-03-29T12:10:49.000Z,65.37
2023-03-29T12:11:49.000Z,64.45
2023-03-29T12:12:49.000Z,64.55
2023-03-29T12:13:49.000Z,65.16
2023-03-29T12:14:49.000Z,64.96
2023-03-29T12:15:49.000Z,64.83
2023-03-29T12:16:48.000Z,64.52
2023-03-29T12:17:48.000Z,63.70
2023-03-29T12:18:48.000Z,63.63
2023-03-29T12:19:48.000Z,65.23
2023-03-29T12:20:48.000Z,65.34
2023-03-29T12:21:48.000Z,66.46
2023-03-29T12:22:48.000Z,64.22
2023-03-29T12:23:48.000Z,65.31
2023-03-29T12:24:48.000Z,63.47
2023-03-29T12:25:48.000Z,62.96
2023-03-29T12:26:48.000Z,63.98
2023-03-29T12:27:48.000Z,63.19
2023-03-29T12:28:48.000Z,63.87
2023-03-29T12:29:48.000Z,65.41
2023-03-29T12:30:48.000Z,65.41
2023-03-29T12:31:48.000Z,63.57
2023-03-29T12:32:48.000Z,64.49
2023-03-29T12:33:48.000Z,63.78
2023-03-29T12:34:48.000Z,63.57
2023-03-29T12:35:48.000Z,64.59
2023-03-29T12:36:48.000Z,63.26
2023-03-29T12:37:48.000Z,63.26
2023-03-29T12:38:48.000Z,64.08
2023-03-29T12:39:48.000Z,63.78
2023-03-29T12:40:48.000Z,63.16
2023-03-29T12:41:48.000Z,63.26
2023-03-29T12:42:48.000Z,62.88
2023-03-29T12:43:48.000Z,64.01
2023-03-29T12:44:48.000Z,64.62
2023-03-29T12:45:48.000Z,65.41
2023-03-29T12:46:48.000Z,63.78
2023-03-29T12:47:48.000Z,63.67
2023-03-29T12:48:48.000Z,63.67
2023-03-29T12:49:48.000Z,63.13
2023-03-29T12:50:48.000Z,63.26
2023-03-29T12:51:48.000Z,64.97
2023-03-29T12:52:48.000Z,64.66